createdAt,value
2017-11-08T00:00:10.028Z,33.55
2017-11-08T00:01:15.942Z,34.78
2017-11-08T00:02:22.362Z,34.00
2017-11-08T00:03:28.244Z,32.13
2017-11-08T00:04:34.315Z,35.83
2017-11-08T00:05:40.438Z,33.10
2017-11-08T00:06:46.537Z,33.80
2017-11-08T00:07:52.613Z,35.20
2017-11-08T00:08:58.513Z,35.22
2017-11-08T00:10:03.910Z,35.53
2017-11-08T00:11:10.984Z,35.20
2017-11-08T00:12:16.857Z,34.30
2017-11-08T00:13:22.942Z,35.40
2017-11-08T00:14:29.044Z,37.10
2017-11-08T00:15:35.136Z,36.90
2017-11-08T00:16:41.217Z,34.17
2017-11-08T00:17:49.804Z,33.90
2017-11-08T00:18:58.758Z,35.63
2017-11-08T00:20:04.649Z,36.53
2017-11-08T00:21:10.550Z,36.40
2017-11-08T00:22:19.604Z,36.35
2017-11-08T00:23:27.549Z,33.47
2017-11-08T00:24:33.648Z,34.25
2017-11-08T00:25:39.556Z,34.45
2017-11-08T00:26:48.396Z,33.90
2017-11-08T00:27:54.468Z,35.17
2017-11-08T00:29:00.539Z,34.35
2017-11-08T00:30:06.700Z,34.55
2017-11-08T00:31:12.797Z,35.17
2017-11-08T00:32:21.785Z,34.60
2017-11-08T00:33:27.892Z,33.13
2017-11-08T00:34:38.017Z,33.95
2017-11-08T00:35:47.904Z,32.20
2017-11-08T00:36:54.003Z,33.60
2017-11-08T00:38:00.118Z,33.50
2017-11-08T00:39:05.870Z,35.38
2017-11-08T00:40:11.976Z,35.72
2017-11-08T00:41:18.085Z,38.67
2017-11-08T00:42:24.162Z,35.28
2017-11-08T00:43:30.247Z,36.55
2017-11-08T00:44:36.448Z,36.28
2017-11-08T00:45:42.559Z,34.05
2017-11-08T00:46:48.704Z,32.92
2017-11-08T00:47:54.800Z,37.20
2017-11-08T00:49:00.890Z,37.80
2017-11-08T00:50:06.995Z,37.53
2017-11-08T00:51:16.938Z,36.65
2017-11-08T00:52:22.839Z,27.95
2017-11-08T00:53:28.934Z,35.05
2017-11-08T00:54:35.028Z,36.17
2017-11-08T00:55:41.196Z,34.85
2017-11-08T00:56:47.286Z,34.65
2017-11-08T00:57:53.385Z,37.35
2017-11-08T00:58:59.098Z,36.47
2017-11-08T01:00:09.276Z,37.85
2017-11-08T01:01:15.993Z,36.53
2017-11-08T01:02:22.069Z,35.90
2017-11-08T01:03:27.788Z,36.85
2017-11-08T01:04:33.885Z,38.25
2017-11-08T01:05:40.008Z,34.28
2017-11-08T01:06:46.073Z,34.10
2017-11-08T01:07:52.177Z,34.92
2017-11-08T01:08:58.255Z,37.63
2017-11-08T01:10:03.959Z,37.55
2017-11-08T01:11:10.053Z,35.75
2017-11-08T01:12:16.122Z,35.55
2017-11-08T01:13:22.206Z,35.17
2017-11-08T01:14:28.277Z,37.92
2017-11-08T01:15:34.414Z,37.78
2017-11-08T01:16:40.490Z,37.60
2017-11-08T01:17:46.577Z,39.90
2017-11-08T01:18:52.481Z,38.20
2017-11-08T01:19:58.567Z,38.97
2017-11-08T01:21:04.698Z,34.97
2017-11-08T01:22:10.804Z,36.95
2017-11-08T01:23:16.885Z,37.20
2017-11-08T01:24:22.968Z,37.80
2017-11-08T01:25:29.967Z,37.53
2017-11-08T01:26:36.634Z,38.35
2017-11-08T01:27:42.721Z,38.80
2017-11-08T01:28:48.817Z,36.72
2017-11-08T01:29:54.885Z,35.13
2017-11-08T01:31:01.006Z,36.65
2017-11-08T01:32:08.022Z,36.95
2017-11-08T01:33:14.134Z,36.85
2017-11-08T01:34:20.186Z,35.00
2017-11-08T01:35:26.272Z,35.45
2017-11-08T01:36:32.397Z,35.33
2017-11-08T01:37:39.942Z,35.92
2017-11-08T01:38:46.052Z,36.47
2017-11-08T01:39:52.161Z,39.95
2017-11-08T01:41:03.770Z,38.83
2017-11-08T01:42:11.336Z,37.67
2017-11-08T01:43:17.459Z,37.65
2017-11-08T01:44:26.382Z,38.97
2017-11-08T01:45:34.612Z,37.72
2017-11-08T01:46:40.717Z,37.28
2017-11-08T01:47:46.799Z,36.97
2017-11-08T01:48:52.854Z,34.50
2017-11-08T01:49:58.938Z,36.38
2017-11-08T01:51:05.045Z,37.78
2017-11-08T01:52:11.846Z,39.63
2017-11-08T01:53:17.923Z,36.88
2017-11-08T01:54:24.010Z,37.65
2017-11-08T01:55:29.389Z,39.40
2017-11-08T01:56:34.789Z,37.50
2017-11-08T01:57:39.953Z,38.13
2017-11-08T01:58:45.109Z,39.22
2017-11-08T01:59:50.482Z,40.12
2017-11-08T02:00:56.377Z,38.80
2017-11-08T02:02:01.921Z,38.50
2017-11-08T02:03:07.621Z,39.00
2017-11-08T02:04:13.709Z,38.28
2017-11-08T02:05:19.801Z,38.38
2017-11-08T02:06:25.202Z,38.53
2017-11-08T02:07:31.287Z,37.97
2017-11-08T02:08:40.114Z,38.97
2017-11-08T02:09:46.025Z,40.83
2017-11-08T02:10:52.188Z,38.38
2017-11-08T02:11:58.295Z,42.00
2017-11-08T02:13:08.289Z,38.78
2017-11-08T02:14:14.021Z,39.22
2017-11-08T02:15:20.119Z,39.67
2017-11-08T02:16:26.272Z,39.00
2017-11-08T02:17:32.867Z,40.78
2017-11-08T02:18:41.581Z,42.53
2017-11-08T02:19:48.611Z,39.53
2017-11-08T02:20:56.084Z,38.83
2017-11-08T02:22:02.829Z,38.55
2017-11-08T02:23:10.692Z,39.25
2017-11-08T02:24:18.817Z,40.90
2017-11-08T02:25:32.135Z,37.03
2017-11-08T02:26:41.772Z,39.05
2017-11-08T02:27:48.334Z,38.45
2017-11-08T02:28:55.764Z,41.92
2017-11-08T02:30:02.141Z,40.70
2017-11-08T02:31:08.918Z,40.08
2017-11-08T02:32:15.897Z,39.83
2017-11-08T02:33:23.104Z,39.47
2017-11-08T02:34:30.262Z,36.28
2017-11-08T02:35:36.018Z,39.40
2017-11-08T02:36:42.130Z,38.13
2017-11-08T02:37:48.217Z,39.30
2017-11-08T02:38:53.937Z,41.00
2017-11-08T02:40:00.042Z,38.13
2017-11-08T02:41:07.034Z,42.75
2017-11-08T02:42:13.159Z,39.40
2017-11-08T02:43:19.273Z,38.78
2017-11-08T02:44:25.370Z,37.53
2017-11-08T02:45:35.388Z,37.90
2017-11-08T02:46:40.789Z,38.65
2017-11-08T02:47:46.521Z,37.45
2017-11-08T02:48:52.605Z,40.03
2017-11-08T02:49:58.684Z,40.75
2017-11-08T02:51:10.962Z,37.75
2017-11-08T02:52:17.067Z,40.60
2017-11-08T02:53:31.894Z,40.22
2017-11-08T02:54:45.058Z,38.85
2017-11-08T02:55:50.808Z,39.38
2017-11-08T02:56:56.953Z,39.55
2017-11-08T02:58:03.073Z,39.80
2017-11-08T02:59:09.309Z,39.80
2017-11-08T03:00:15.407Z,41.97
2017-11-08T03:01:21.286Z,38.83
2017-11-08T03:02:30.042Z,40.60
2017-11-08T03:03:41.003Z,37.65
2017-11-08T03:04:47.106Z,41.70
2017-11-08T03:05:58.130Z,38.05
2017-11-08T03:07:04.474Z,40.42
2017-11-08T03:08:10.588Z,37.13
2017-11-08T03:09:16.672Z,41.88
2017-11-08T03:10:22.855Z,40.47
2017-11-08T03:11:28.927Z,36.55
2017-11-08T03:12:35.062Z,40.50
2017-11-08T03:13:41.142Z,37.72
2017-11-08T03:14:47.237Z,37.97
2017-11-08T03:15:58.058Z,40.00
2017-11-08T03:17:04.177Z,40.00
2017-11-08T03:18:10.260Z,39.65
2017-11-08T03:19:16.159Z,38.50
2017-11-08T03:20:22.253Z,39.95
2017-11-08T03:21:33.540Z,39.05
2017-11-08T03:22:39.617Z,40.75
2017-11-08T03:23:45.719Z,41.95
2017-11-08T03:24:51.653Z,41.60
2017-11-08T03:25:57.737Z,39.00
2017-11-08T03:27:04.565Z,41.80
2017-11-08T03:28:11.311Z,39.35
2017-11-08T03:29:17.400Z,41.15
2017-11-08T03:30:23.479Z,41.13
2017-11-08T03:31:29.605Z,40.47
2017-11-08T03:32:35.817Z,42.28
2017-11-08T03:33:41.176Z,41.58
2017-11-08T03:34:47.261Z,41.33
2017-11-08T03:35:52.628Z,42.62
2017-11-08T03:36:57.798Z,41.60
2017-11-08T03:38:03.713Z,38.70
2017-11-08T03:39:09.619Z,42.10
2017-11-08T03:40:15.504Z,37.83
2017-11-08T03:41:21.594Z,41.08
2017-11-08T03:42:27.719Z,39.47
2017-11-08T03:43:33.834Z,41.33
2017-11-08T03:44:39.927Z,41.05
2017-11-08T03:45:46.037Z,40.72
2017-11-08T03:46:52.156Z,43.22
2017-11-08T03:47:58.275Z,40.88
2017-11-08T03:49:04.016Z,41.67
2017-11-08T03:50:09.729Z,42.20
2017-11-08T03:51:15.827Z,41.45
2017-11-08T03:52:21.754Z,42.47
2017-11-08T03:53:27.846Z,43.22
2017-11-08T03:54:33.940Z,42.50
2017-11-08T03:55:40.023Z,42.67
2017-11-08T03:56:46.130Z,43.95
2017-11-08T03:57:52.216Z,44.88
2017-11-08T03:58:58.349Z,44.22
2017-11-08T04:00:03.754Z,42.58
2017-11-08T04:01:09.627Z,42.58
2017-11-08T04:02:15.746Z,42.85
2017-11-08T04:03:27.993Z,42.25
2017-11-08T04:04:34.081Z,42.65
2017-11-08T04:05:40.207Z,42.50
2017-11-08T04:06:46.341Z,41.37
2017-11-08T04:07:52.420Z,42.20
2017-11-08T04:08:58.529Z,43.80
2017-11-08T04:10:04.740Z,42.40
2017-11-08T04:11:10.838Z,42.40
2017-11-08T04:12:16.953Z,43.05
2017-11-08T04:13:22.849Z,40.72
2017-11-08T04:14:28.937Z,42.25
2017-11-08T04:15:35.023Z,42.20
2017-11-08T04:16:40.732Z,40.08
2017-11-08T04:17:46.645Z,45.15
2017-11-08T04:18:52.729Z,42.22
2017-11-08T04:19:58.670Z,41.67
2017-11-08T04:21:04.762Z,43.63
2017-11-08T04:22:10.666Z,42.35
2017-11-08T04:23:16.791Z,42.22
2017-11-08T04:24:22.873Z,39.65
2017-11-08T04:25:28.222Z,43.53
2017-11-08T04:26:34.341Z,43.28
2017-11-08T04:27:40.450Z,41.65
2017-11-08T04:28:46.144Z,44.03
2017-11-08T04:29:52.244Z,41.65
2017-11-08T04:30:58.359Z,45.47
2017-11-08T04:32:04.461Z,43.45
2017-11-08T04:33:10.363Z,43.42
2017-11-08T04:34:16.469Z,41.85
2017-11-08T04:35:22.540Z,43.38
2017-11-08T04:36:28.626Z,45.60
2017-11-08T04:37:34.738Z,43.47
2017-11-08T04:38:40.807Z,43.45
2017-11-08T04:39:46.930Z,44.90
2017-11-08T04:40:53.007Z,41.90
2017-11-08T04:41:59.104Z,42.15
2017-11-08T04:43:05.228Z,42.58
2017-11-08T04:44:10.949Z,42.50
2017-11-08T04:45:16.718Z,49.20
2017-11-08T04:46:22.110Z,44.45
2017-11-08T04:47:28.211Z,45.78
2017-11-08T04:48:34.322Z,44.03
2017-11-08T04:49:43.728Z,41.92
2017-11-08T04:50:49.848Z,43.17
2017-11-08T04:51:55.925Z,42.28
2017-11-08T04:53:02.045Z,43.97
2017-11-08T04:54:08.144Z,42.70
2017-11-08T04:55:14.042Z,43.38
2017-11-08T04:56:19.929Z,43.45
2017-11-08T04:57:25.829Z,40.17
2017-11-08T04:58:31.577Z,44.40
2017-11-08T04:59:37.651Z,44.83
2017-11-08T05:00:43.555Z,44.38
2017-11-08T05:01:49.638Z,44.45
2017-11-08T05:02:55.425Z,45.12
2017-11-08T05:04:01.901Z,43.15
2017-11-08T05:05:07.979Z,46.30
2017-11-08T05:06:14.051Z,45.55
2017-11-08T05:07:21.332Z,46.35
2017-11-08T05:08:28.370Z,46.35
2017-11-08T05:09:35.406Z,44.45
2017-11-08T05:10:42.326Z,45.42
2017-11-08T05:11:52.192Z,44.80
2017-11-08T05:13:00.549Z,43.22
2017-11-08T05:14:07.675Z,44.38
2017-11-08T05:15:14.584Z,46.85
2017-11-08T05:16:21.921Z,43.90
2017-11-08T05:17:29.086Z,46.70
2017-11-08T05:18:35.978Z,43.92
2017-11-08T05:19:42.393Z,44.00
2017-11-08T05:20:48.451Z,44.95
2017-11-08T05:21:54.553Z,43.58
2017-11-08T05:23:00.671Z,44.25
2017-11-08T05:24:06.744Z,46.85
2017-11-08T05:25:12.791Z,44.40
2017-11-08T05:26:18.465Z,46.55
2017-11-08T05:27:24.550Z,45.38
2017-11-08T05:28:30.664Z,44.95
2017-11-08T05:29:36.702Z,44.67
2017-11-08T05:30:42.789Z,45.35
2017-11-08T05:31:48.893Z,42.88
2017-11-08T05:32:55.727Z,41.70
2017-11-08T05:34:02.486Z,45.28
2017-11-08T05:35:08.616Z,37.75
2017-11-08T05:36:14.505Z,45.50
2017-11-08T05:37:26.295Z,44.90
2017-11-08T05:38:33.057Z,44.97
2017-11-08T05:39:39.232Z,45.90
2017-11-08T05:40:45.304Z,46.28
2017-11-08T05:41:51.475Z,47.08
2017-11-08T05:42:57.623Z,43.87
2017-11-08T05:44:03.692Z,46.28
2017-11-08T05:45:10.173Z,46.67
2017-11-08T05:46:17.703Z,46.88
2017-11-08T05:47:23.586Z,44.92
2017-11-08T05:48:29.700Z,45.92
2017-11-08T05:49:35.786Z,45.50
2017-11-08T05:50:41.858Z,45.60
2017-11-08T05:51:47.943Z,45.58
2017-11-08T05:52:53.970Z,45.80
2017-11-08T05:53:59.884Z,47.17
2017-11-08T05:55:07.095Z,43.38
2017-11-08T05:56:13.738Z,47.03
2017-11-08T05:57:20.316Z,46.83
2017-11-08T05:58:27.443Z,43.28
2017-11-08T05:59:34.069Z,45.50
2017-11-08T06:00:40.224Z,45.83
2017-11-08T06:01:46.091Z,47.13
2017-11-08T06:02:52.168Z,45.53
2017-11-08T06:03:58.457Z,45.63
2017-11-08T06:05:04.418Z,45.70
2017-11-08T06:06:10.678Z,45.12
2017-11-08T06:07:17.784Z,45.75
2017-11-08T06:08:23.884Z,46.72
2017-11-08T06:09:29.980Z,43.40
2017-11-08T06:10:35.832Z,44.75
2017-11-08T06:11:41.884Z,44.30
2017-11-08T06:12:47.957Z,43.47
2017-11-08T06:13:54.033Z,45.20
2017-11-08T06:15:00.089Z,44.50
2017-11-08T06:16:06.146Z,42.95
2017-11-08T06:17:12.186Z,42.10
2017-11-08T06:18:18.325Z,44.95
2017-11-08T06:19:24.409Z,42.72
2017-11-08T06:20:30.475Z,47.35
2017-11-08T06:21:36.543Z,46.13
2017-11-08T06:22:42.605Z,45.45
2017-11-08T06:23:48.504Z,47.20
2017-11-08T06:24:54.545Z,46.30
2017-11-08T06:26:02.336Z,45.85
2017-11-08T06:27:12.124Z,45.20
2017-11-08T06:28:18.208Z,46.85
2017-11-08T06:29:24.291Z,45.05
2017-11-08T06:30:30.356Z,45.28
2017-11-08T06:31:36.441Z,46.58
2017-11-08T06:32:42.513Z,43.92
2017-11-08T06:33:48.602Z,44.42
2017-11-08T06:34:54.507Z,47.00
2017-11-08T06:36:00.554Z,47.35
2017-11-08T06:37:06.590Z,44.95
2017-11-08T06:38:12.634Z,48.22
2017-11-08T06:39:19.281Z,46.45
2017-11-08T06:40:25.913Z,45.00
2017-11-08T06:41:31.950Z,47.53
2017-11-08T06:42:38.019Z,44.25
2017-11-08T06:43:45.008Z,46.33
2017-11-08T06:44:51.095Z,44.88
2017-11-08T06:45:57.147Z,46.05
2017-11-08T06:47:03.182Z,45.35
2017-11-08T06:48:09.235Z,43.87
2017-11-08T06:49:15.314Z,47.47
2017-11-08T06:50:21.389Z,48.67
2017-11-08T06:51:27.533Z,45.55
2017-11-08T06:52:39.575Z,42.47
2017-11-08T06:53:45.689Z,45.95
2017-11-08T06:54:51.749Z,48.75
2017-11-08T06:56:15.495Z,48.75
2017-11-08T06:57:22.168Z,47.17
2017-11-08T06:58:28.252Z,44.65
2017-11-08T06:59:35.290Z,46.70
2017-11-08T07:00:41.369Z,45.85
2017-11-08T07:01:47.463Z,44.75
2017-11-08T07:02:53.319Z,43.10
2017-11-08T07:03:59.250Z,42.75
2017-11-08T07:05:05.338Z,44.83
2017-11-08T07:06:13.177Z,44.30
2017-11-08T07:07:19.267Z,46.05
2017-11-08T07:08:25.365Z,44.83
2017-11-08T07:09:31.466Z,43.53
2017-11-08T07:10:37.562Z,43.97
2017-11-08T07:11:43.621Z,45.20
2017-11-08T07:12:49.684Z,43.83
2017-11-08T07:13:55.792Z,44.53
2017-11-08T07:15:01.900Z,45.53
2017-11-08T07:16:07.978Z,45.78
2017-11-08T07:17:14.136Z,45.80
2017-11-08T07:18:20.216Z,42.13
2017-11-08T07:19:26.360Z,46.25
2017-11-08T07:20:32.438Z,46.05
2017-11-08T07:21:38.538Z,46.65
2017-11-08T07:22:44.602Z,44.85
2017-11-08T07:23:50.651Z,46.10
2017-11-08T07:24:56.718Z,45.80
2017-11-08T07:26:02.802Z,43.55
2017-11-08T07:27:08.519Z,46.53
2017-11-08T07:28:15.367Z,41.90
2017-11-08T07:29:21.439Z,42.40
2017-11-08T07:30:27.943Z,44.30
2017-11-08T07:31:34.399Z,43.17
2017-11-08T07:32:40.514Z,44.00
2017-11-08T07:33:46.598Z,44.75
2017-11-08T07:34:52.496Z,45.25
2017-11-08T07:35:58.555Z,48.03
2017-11-08T07:37:04.693Z,44.05
2017-11-08T07:38:10.750Z,45.97
2017-11-08T07:39:16.863Z,43.63
2017-11-08T07:40:22.965Z,43.83
2017-11-08T07:41:29.552Z,43.60
2017-11-08T07:42:35.634Z,44.33
2017-11-08T07:43:41.707Z,45.00
2017-11-08T07:44:47.824Z,42.42
2017-11-08T07:45:53.876Z,42.38
2017-11-08T07:46:59.958Z,46.72
2017-11-08T07:48:06.013Z,46.28
2017-11-08T07:49:12.070Z,45.30
2017-11-08T07:50:18.204Z,44.58
2017-11-08T07:51:23.877Z,47.28
2017-11-08T07:52:29.750Z,44.80
2017-11-08T07:53:35.825Z,45.42
2017-11-08T07:54:47.287Z,42.75
2017-11-08T07:55:58.694Z,43.97
2017-11-08T07:57:04.781Z,43.92
2017-11-08T07:58:10.651Z,41.65
2017-11-08T07:59:20.450Z,41.65
2017-11-08T08:00:26.161Z,44.30
2017-11-08T08:01:31.293Z,42.70
2017-11-08T08:02:37.345Z,42.03
2017-11-08T08:03:44.595Z,43.33
2017-11-08T08:04:50.680Z,42.42
2017-11-08T08:05:56.735Z,44.72
2017-11-08T08:07:02.797Z,45.78
2017-11-08T08:08:11.999Z,44.53
2017-11-08T08:09:18.388Z,42.58
2017-11-08T08:10:24.476Z,41.95
2017-11-08T08:11:30.538Z,42.78
2017-11-08T08:12:37.508Z,43.17
2017-11-08T08:13:43.547Z,44.75
2017-11-08T08:14:49.653Z,43.40
2017-11-08T08:15:55.757Z,41.00
2017-11-08T08:17:01.830Z,45.05
2017-11-08T08:18:07.892Z,42.50
2017-11-08T08:19:19.765Z,42.65
2017-11-08T08:20:25.886Z,42.75
2017-11-08T08:21:31.956Z,42.62
2017-11-08T08:22:38.016Z,42.55
2017-11-08T08:23:44.085Z,44.25
2017-11-08T08:24:50.201Z,43.55
2017-11-08T08:25:56.265Z,41.88
2017-11-08T08:27:07.917Z,41.60
2017-11-08T08:28:13.986Z,43.63
2017-11-08T08:29:21.861Z,45.35
2017-11-08T08:30:28.043Z,43.00
2017-11-08T08:31:34.122Z,42.83
2017-11-08T08:32:40.214Z,43.72
2017-11-08T08:33:46.089Z,45.63
2017-11-08T08:34:52.000Z,42.33
2017-11-08T08:35:58.067Z,42.42
2017-11-08T08:37:03.590Z,44.42
2017-11-08T08:38:09.674Z,41.25
2017-11-08T08:39:15.542Z,42.25
2017-11-08T08:40:21.635Z,43.15
2017-11-08T08:41:28.671Z,43.08
2017-11-08T08:42:34.764Z,44.28
2017-11-08T08:43:40.846Z,43.40
2017-11-08T08:44:46.950Z,44.30
2017-11-08T08:45:53.027Z,45.30
2017-11-08T08:46:59.130Z,42.53
2017-11-08T08:48:05.190Z,42.75
2017-11-08T08:49:11.264Z,43.42
2017-11-08T08:50:17.362Z,43.15
2017-11-08T08:51:22.723Z,42.42
2017-11-08T08:52:28.794Z,43.05
2017-11-08T08:53:34.877Z,41.85
2017-11-08T08:54:47.992Z,42.70
2017-11-08T08:55:54.053Z,43.78
2017-11-08T08:57:05.078Z,43.80
2017-11-08T08:58:11.173Z,43.65
2017-11-08T08:59:17.252Z,43.92
2017-11-08T09:00:23.323Z,43.72
2017-11-08T09:01:29.406Z,42.65
2017-11-08T09:02:35.491Z,43.90
2017-11-08T09:03:41.626Z,42.88
2017-11-08T09:04:47.742Z,43.28
2017-11-08T09:05:53.831Z,43.53
2017-11-08T09:06:59.885Z,46.05
2017-11-08T09:08:05.938Z,42.33
2017-11-08T09:09:12.061Z,41.97
2017-11-08T09:10:18.370Z,42.78
2017-11-08T09:11:24.750Z,43.97
2017-11-08T09:12:30.836Z,41.78
2017-11-08T09:13:36.901Z,40.67
2017-11-08T09:14:43.010Z,43.40
2017-11-08T09:15:48.889Z,44.90
2017-11-08T09:16:54.584Z,40.45
2017-11-08T09:18:00.655Z,43.65
2017-11-08T09:19:06.755Z,40.88
2017-11-08T09:20:12.313Z,41.78
2017-11-08T09:21:17.843Z,42.62
2017-11-08T09:22:23.525Z,43.55
2017-11-08T09:23:31.360Z,41.72
2017-11-08T09:24:37.412Z,41.20
2017-11-08T09:25:47.592Z,43.42
2017-11-08T09:26:58.990Z,43.75
2017-11-08T09:28:04.346Z,42.88
2017-11-08T09:29:10.053Z,43.65
2017-11-08T09:30:16.155Z,43.35
2017-11-08T09:31:36.406Z,42.70
2017-11-08T09:32:43.085Z,42.40
2017-11-08T09:33:48.451Z,39.97
2017-11-08T09:35:00.288Z,42.92
2017-11-08T09:36:06.386Z,43.83
2017-11-08T09:37:12.453Z,44.83
2017-11-08T09:38:18.592Z,43.28
2017-11-08T09:39:24.656Z,44.50
2017-11-08T09:40:31.126Z,42.65
2017-11-08T09:41:37.243Z,45.47
2017-11-08T09:42:43.309Z,47.17
2017-11-08T09:43:49.405Z,42.10
2017-11-08T09:44:54.771Z,42.58
2017-11-08T09:46:01.649Z,42.45
2017-11-08T09:47:09.102Z,45.12
2017-11-08T09:48:15.185Z,44.67
2017-11-08T09:49:21.255Z,45.75
2017-11-08T09:50:26.606Z,43.63
2017-11-08T09:51:32.506Z,43.55
2017-11-08T09:52:42.347Z,43.38
2017-11-08T09:53:48.639Z,42.00
2017-11-08T09:54:54.716Z,45.42
2017-11-08T09:56:00.805Z,41.83
2017-11-08T09:57:10.918Z,45.88
2017-11-08T09:58:17.247Z,44.00
2017-11-08T09:59:25.141Z,44.38
2017-11-08T10:00:31.470Z,45.50
2017-11-08T10:01:42.431Z,41.50
2017-11-08T10:02:48.543Z,42.75
2017-11-08T10:03:54.610Z,42.97
2017-11-08T10:05:00.673Z,45.85
2017-11-08T10:06:06.775Z,42.30
2017-11-08T10:07:12.857Z,46.67
2017-11-08T10:08:18.960Z,43.30
2017-11-08T10:09:29.946Z,42.15
2017-11-08T10:10:38.468Z,44.38
2017-11-08T10:11:50.137Z,43.13
2017-11-08T10:13:02.033Z,40.08
2017-11-08T10:14:08.365Z,41.60
2017-11-08T10:15:14.778Z,40.67
2017-11-08T10:16:20.912Z,41.78
2017-11-08T10:17:26.974Z,40.58
2017-11-08T10:18:33.842Z,39.75
2017-11-08T10:19:39.766Z,43.15
2017-11-08T10:20:45.876Z,43.78
2017-11-08T10:21:51.943Z,41.28
2017-11-08T10:23:00.944Z,43.17
2017-11-08T10:24:07.015Z,41.78
2017-11-08T10:25:13.100Z,41.80
2017-11-08T10:26:19.209Z,40.50
2017-11-08T10:27:26.099Z,41.08
2017-11-08T10:28:32.185Z,42.47
2017-11-08T10:29:38.302Z,42.22
2017-11-08T10:30:44.403Z,39.83
2017-11-08T10:31:50.461Z,43.63
2017-11-08T10:32:56.562Z,43.17
2017-11-08T10:34:02.631Z,41.63
2017-11-08T10:35:08.682Z,39.65
2017-11-08T10:36:14.095Z,42.28
2017-11-08T10:37:20.432Z,42.17
2017-11-08T10:38:26.545Z,43.30
2017-11-08T10:39:32.642Z,42.50
2017-11-08T10:40:38.762Z,39.50
2017-11-08T10:41:44.629Z,42.28
2017-11-08T10:42:50.661Z,41.17
2017-11-08T10:43:56.737Z,41.28
2017-11-08T10:45:02.438Z,40.22
2017-11-08T10:46:08.585Z,42.08
2017-11-08T10:47:14.704Z,43.20
2017-11-08T10:48:20.818Z,41.50
2017-11-08T10:49:32.391Z,40.20
2017-11-08T10:50:38.289Z,41.55
2017-11-08T10:51:43.996Z,43.42
2017-11-08T10:53:10.298Z,41.35
2017-11-08T10:54:33.961Z,42.90
2017-11-08T10:55:39.360Z,42.80
2017-11-08T10:56:45.423Z,42.95
2017-11-08T10:57:51.326Z,41.75
2017-11-08T10:59:00.709Z,40.55
2017-11-08T11:00:24.431Z,42.20
2017-11-08T11:01:47.299Z,42.62
2017-11-08T11:02:59.567Z,43.30
2017-11-08T11:04:05.641Z,41.67
2017-11-08T11:05:10.995Z,44.15
2017-11-08T11:06:16.402Z,42.30
2017-11-08T11:07:21.571Z,40.78
2017-11-08T11:08:26.937Z,40.40
2017-11-08T11:09:32.324Z,40.05
2017-11-08T11:10:37.707Z,42.05
2017-11-08T11:11:43.085Z,44.10
2017-11-08T11:12:48.800Z,40.33
2017-11-08T11:13:59.581Z,41.30
2017-11-08T11:15:05.318Z,41.60
2017-11-08T11:16:10.685Z,42.80
2017-11-08T11:17:16.399Z,40.38
2017-11-08T11:18:21.764Z,42.45
2017-11-08T11:19:27.467Z,43.13
2017-11-08T11:20:32.839Z,42.45
2017-11-08T11:21:38.255Z,41.92
2017-11-08T11:22:43.948Z,41.97
2017-11-08T11:23:49.315Z,44.20
2017-11-08T11:24:56.451Z,41.15
2017-11-08T11:26:01.827Z,41.20
2017-11-08T11:27:12.991Z,40.70
2017-11-08T11:28:18.339Z,40.28
2017-11-08T11:29:23.684Z,40.90
2017-11-08T11:30:29.044Z,41.70
2017-11-08T11:31:34.616Z,39.50
2017-11-08T11:32:44.174Z,41.40
2017-11-08T11:33:49.526Z,42.10
2017-11-08T11:34:54.871Z,42.65
2017-11-08T11:36:00.214Z,41.17
2017-11-08T11:37:05.608Z,40.80
2017-11-08T11:38:11.322Z,39.47
2017-11-08T11:39:19.574Z,41.00
2017-11-08T11:40:25.149Z,38.92
2017-11-08T11:41:30.529Z,39.75
2017-11-08T11:42:35.702Z,42.38
2017-11-08T11:43:42.706Z,39.67
2017-11-08T11:44:48.043Z,42.58
2017-11-08T11:45:53.405Z,41.53
2017-11-08T11:46:58.751Z,39.90
2017-11-08T11:48:04.094Z,40.03
2017-11-08T11:49:11.019Z,41.10
2017-11-08T11:50:16.392Z,41.17
2017-11-08T11:51:25.941Z,39.67
2017-11-08T11:52:31.316Z,40.90
2017-11-08T11:53:36.680Z,41.85
2017-11-08T11:54:42.372Z,43.38
2017-11-08T11:55:50.293Z,40.58
2017-11-08T11:56:55.690Z,40.10
2017-11-08T11:58:01.070Z,39.45
2017-11-08T11:59:06.398Z,40.25
2017-11-08T12:00:11.895Z,40.30
2017-11-08T12:01:17.351Z,38.92
2017-11-08T12:02:22.521Z,41.53
2017-11-08T12:03:27.936Z,39.53
2017-11-08T12:04:33.088Z,41.85
2017-11-08T12:05:40.571Z,41.10
2017-11-08T12:06:45.953Z,41.55
2017-11-08T12:07:51.128Z,40.12
2017-11-08T12:09:01.031Z,40.30
2017-11-08T12:10:10.645Z,37.65
2017-11-08T12:11:15.802Z,38.63
2017-11-08T12:12:21.176Z,39.08
2017-11-08T12:13:26.353Z,42.15
2017-11-08T12:14:31.509Z,40.40
2017-11-08T12:15:36.679Z,40.03
2017-11-08T12:16:42.787Z,40.38
2017-11-08T12:17:48.492Z,40.70
2017-11-08T12:18:53.841Z,42.00
2017-11-08T12:19:59.218Z,40.20
2017-11-08T12:21:04.577Z,38.60
2017-11-08T12:22:09.778Z,42.42
2017-11-08T12:23:15.849Z,41.60
2017-11-08T12:24:21.023Z,40.53
2017-11-08T12:25:29.063Z,41.28
2017-11-08T12:26:34.417Z,40.63
2017-11-08T12:27:40.163Z,40.10
2017-11-08T12:28:45.330Z,43.15
2017-11-08T12:29:51.021Z,40.33
2017-11-08T12:30:56.737Z,41.60
2017-11-08T12:32:02.146Z,42.83
2017-11-08T12:33:07.557Z,39.00
2017-11-08T12:34:12.938Z,40.67
2017-11-08T12:35:18.345Z,39.47
2017-11-08T12:36:23.714Z,42.80
2017-11-08T12:37:28.887Z,40.85
2017-11-08T12:38:40.645Z,39.30
2017-11-08T12:39:56.799Z,39.70
2017-11-08T12:41:07.852Z,38.15
2017-11-08T12:42:14.091Z,38.88
2017-11-08T12:43:19.248Z,41.03
2017-11-08T12:44:26.256Z,40.78
2017-11-08T12:45:31.617Z,40.40
2017-11-08T12:46:36.798Z,39.40
2017-11-08T12:47:42.168Z,39.10
2017-11-08T12:48:47.531Z,42.80
2017-11-08T12:49:52.710Z,39.67
2017-11-08T12:50:58.077Z,42.33
2017-11-08T12:52:03.466Z,41.47
2017-11-08T12:53:08.836Z,41.37
2017-11-08T12:54:14.010Z,40.70
2017-11-08T12:55:19.354Z,40.35
2017-11-08T12:56:24.881Z,39.10
2017-11-08T12:57:36.624Z,39.28
2017-11-08T12:58:41.991Z,38.50
2017-11-08T12:59:47.355Z,41.42
2017-11-08T13:00:52.721Z,39.67
2017-11-08T13:01:58.058Z,40.05
2017-11-08T13:03:03.487Z,38.92
2017-11-08T13:04:08.652Z,39.53
2017-11-08T13:05:14.390Z,39.40
2017-11-08T13:06:19.757Z,37.80
2017-11-08T13:07:25.110Z,38.22
2017-11-08T13:08:30.533Z,38.50
2017-11-08T13:09:38.699Z,37.88
2017-11-08T13:10:49.247Z,39.28
2017-11-08T13:11:54.623Z,39.58
2017-11-08T13:13:00.057Z,39.45
2017-11-08T13:14:05.683Z,40.50
2017-11-08T13:15:10.643Z,38.03
2017-11-08T13:16:15.962Z,39.42
2017-11-08T13:17:21.677Z,39.85
2017-11-08T13:18:27.067Z,36.35
2017-11-08T13:19:32.427Z,39.53
2017-11-08T13:20:37.786Z,36.78
2017-11-08T13:21:42.941Z,39.70
2017-11-08T13:22:48.508Z,37.83
2017-11-08T13:23:53.853Z,38.47
2017-11-08T13:24:59.575Z,39.70
2017-11-08T13:26:04.931Z,39.00
2017-11-08T13:27:10.278Z,38.70
2017-11-08T13:28:15.663Z,40.17
2017-11-08T13:29:21.010Z,39.80
2017-11-08T13:30:26.186Z,39.08
2017-11-08T13:31:32.348Z,37.85
2017-11-08T13:32:37.744Z,38.58
2017-11-08T13:33:43.103Z,36.47
2017-11-08T13:34:48.464Z,37.88
2017-11-08T13:35:53.841Z,35.50
2017-11-08T13:36:59.217Z,37.88
2017-11-08T13:38:04.582Z,40.25
2017-11-08T13:39:09.957Z,37.42
2017-11-08T13:40:15.667Z,39.17
2017-11-08T13:41:21.051Z,38.33
2017-11-08T13:42:26.774Z,40.20
2017-11-08T13:43:32.495Z,39.33
2017-11-08T13:44:38.231Z,40.05
2017-11-08T13:45:43.384Z,40.03
2017-11-08T13:46:48.862Z,37.13
2017-11-08T13:47:54.609Z,39.53
2017-11-08T13:48:59.944Z,39.15
2017-11-08T13:50:05.326Z,38.65
2017-11-08T13:51:10.711Z,39.97
2017-11-08T13:52:16.089Z,38.53
2017-11-08T13:53:21.818Z,40.03
2017-11-08T13:54:27.490Z,37.90
2017-11-08T13:55:32.836Z,40.30
2017-11-08T13:56:38.911Z,40.88
2017-11-08T13:57:44.299Z,39.00
2017-11-08T13:58:50.030Z,41.45
2017-11-08T13:59:55.181Z,40.42
2017-11-08T14:01:00.555Z,40.45
2017-11-08T14:02:05.728Z,39.42
2017-11-08T14:03:10.934Z,37.92
2017-11-08T14:04:18.285Z,39.75
2017-11-08T14:05:23.983Z,39.60
2017-11-08T14:06:30.050Z,37.88
2017-11-08T14:07:35.810Z,37.45
2017-11-08T14:08:41.537Z,38.55
2017-11-08T14:09:47.638Z,37.50
2017-11-08T14:10:53.729Z,39.13
2017-11-08T14:11:59.797Z,40.08
2017-11-08T14:13:05.885Z,38.00
2017-11-08T14:14:11.976Z,36.83
2017-11-08T14:15:18.068Z,38.20
2017-11-08T14:16:24.142Z,40.80